sensor_id;sensor_type;location;lat;lon;timestamp;pressure;altitude;pressure_sealevel;temperature;humidity
6506;BME280;3286;49.858;8.768;2022-08-04T00:01:38;98929.88;;;24.15;42.76
6506;BME280;3286;49.858;8.768;2022-08-04T00:04:17;98926.31;;;24.32;42.03
6506;BME280;3286;49.858;8.768;2022-08-04T00:06:54;98921.91;;;24.43;41.81
6506;BME280;3286;49.858;8.768;2022-08-04T00:09:40;98928.66;;;24.45;41.83
6506;BME280;3286;49.858;8.768;2022-08-04T00:12:10;98927.69;;;24.52;41.79
6506;BME280;3286;49.858;8.768;2022-08-04T00:14:46;98930.19;;;24.19;42.42
6506;BME280;3286;49.858;8.768;2022-08-04T00:17:20;98931.41;;;24.28;42.49
6506;BME280;3286;49.858;8.768;2022-08-04T00:19:48;98926.25;;;24.27;42.28
6506;BME280;3286;49.858;8.768;2022-08-04T00:22:17;98933.66;;;24.54;41.75
6506;BME280;3286;49.858;8.768;2022-08-04T00:24:46;98935.56;;;24.36;42.79
6506;BME280;3286;49.858;8.768;2022-08-04T00:27:14;98927.34;;;24.48;42.48
6506;BME280;3286;49.858;8.768;2022-08-04T00:29:43;98920.75;;;24.39;42.34
6506;BME280;3286;49.858;8.768;2022-08-04T00:32:12;98931.25;;;24.18;42.91
6506;BME280;3286;49.858;8.768;2022-08-04T00:34:40;98933.78;;;24.08;43.39
6506;BME280;3286;49.858;8.768;2022-08-04T00:37:09;98932.50;;;24.10;43.35
6506;BME280;3286;49.858;8.768;2022-08-04T00:39:36;98923.50;;;24.05;43.75
6506;BME280;3286;49.858;8.768;2022-08-04T00:42:34;98923.50;;;24.05;43.38
6506;BME280;3286;49.858;8.768;2022-08-04T00:45:17;98928.13;;;23.75;43.87
6506;BME280;3286;49.858;8.768;2022-08-04T00:47:59;98925.69;;;24.08;43.02
6506;BME280;3286;49.858;8.768;2022-08-04T00:50:36;98922.53;;;23.65;43.92
6506;BME280;3286;49.858;8.768;2022-08-04T00:53:12;98921.50;;;24.17;42.39
6506;BME280;3286;49.858;8.768;2022-08-04T00:56:04;98911.34;;;24.24;42.49
6506;BME280;3286;49.858;8.768;2022-08-04T00:58:58;98919.06;;;23.98;43.07
6506;BME280;3286;49.858;8.768;2022-08-04T01:01:42;98924.53;;;23.86;43.37
6506;BME280;3286;49.858;8.768;2022-08-04T01:04:15;98929.41;;;23.72;43.60
6506;BME280;3286;49.858;8.768;2022-08-04T01:07:02;98917.50;;;23.85;43.09
6506;BME280;3286;49.858;8.768;2022-08-04T01:09:43;98923.13;;;23.84;43.04
6506;BME280;3286;49.858;8.768;2022-08-04T01:12:50;98925.34;;;23.87;43.38
6506;BME280;3286;49.858;8.768;2022-08-04T01:15:25;98918.44;;;23.45;44.07
6506;BME280;3286;49.858;8.768;2022-08-04T01:18:05;98912.09;;;23.68;43.90
6506;BME280;3286;49.858;8.768;2022-08-04T01:20:45;98923.13;;;23.67;43.82
6506;BME280;3286;49.858;8.768;2022-08-04T01:23:48;98916.69;;;22.69;45.98
6506;BME280;3286;49.858;8.768;2022-08-04T01:26:34;98912.94;;;23.40;44.32
6506;BME280;3286;49.858;8.768;2022-08-04T01:29:08;98910.25;;;22.99;45.74
6506;BME280;3286;49.858;8.768;2022-08-04T01:31:48;98917.00;;;22.84;45.88
6506;BME280;3286;49.858;8.768;2022-08-04T01:34:18;98916.06;;;22.79;45.76
6506;BME280;3286;49.858;8.768;2022-08-04T01:36:46;98916.53;;;23.28;44.52
6506;BME280;3286;49.858;8.768;2022-08-04T01:39:15;98916.66;;;23.51;44.31
6506;BME280;3286;49.858;8.768;2022-08-04T01:42:01;98907.53;;;23.69;43.32
6506;BME280;3286;49.858;8.768;2022-08-04T01:44:32;98916.72;;;23.39;44.45
6506;BME280;3286;49.858;8.768;2022-08-04T01:47:01;98906.06;;;23.32;44.58
6506;BME280;3286;49.858;8.768;2022-08-04T01:49:29;98907.34;;;23.76;43.62
6506;BME280;3286;49.858;8.768;2022-08-04T01:51:56;98910.41;;;23.33;45.21
6506;BME280;3286;49.858;8.768;2022-08-04T01:54:24;98910.13;;;23.06;45.56
6506;BME280;3286;49.858;8.768;2022-08-04T01:56:52;98906.16;;;23.37;45.02
6506;BME280;3286;49.858;8.768;2022-08-04T01:59:20;98901.75;;;23.19;45.15
6506;BME280;3286;49.858;8.768;2022-08-04T02:01:48;98905.41;;;23.25;45.19
6506;BME280;3286;49.858;8.768;2022-08-04T02:04:17;98901.03;;;23.36;44.69
6506;BME280;3286;49.858;8.768;2022-08-04T02:06:52;98893.09;;;23.17;45.53
6506;BME280;3286;49.858;8.768;2022-08-04T02:09:26;98904.16;;;23.04;46.04
6506;BME280;3286;49.858;8.768;2022-08-04T02:12:02;98895.06;;;23.22;45.46
6506;BME280;3286;49.858;8.768;2022-08-04T02:14:31;98894.84;;;22.94;45.87
6506;BME280;3286;49.858;8.768;2022-08-04T02:17:11;98892.47;;;22.98;46.18
6506;BME280;3286;49.858;8.768;2022-08-04T02:19:49;98886.88;;;23.46;44.88
6506;BME280;3286;49.858;8.768;2022-08-04T02:22:21;98885.44;;;23.55;44.85
6506;BME280;3286;49.858;8.768;2022-08-04T02:24:49;98891.63;;;23.09;45.72
6506;BME280;3286;49.858;8.768;2022-08-04T02:27:31;98887.56;;;23.24;45.53
6506;BME280;3286;49.858;8.768;2022-08-04T02:29:59;98885.88;;;23.06;46.00
6506;BME280;3286;49.858;8.768;2022-08-04T02:32:32;98884.69;;;23.13;45.92
6506;BME280;3286;49.858;8.768;2022-08-04T02:35:07;98886.59;;;23.01;46.53
6506;BME280;3286;49.858;8.768;2022-08-04T02:37:34;98889.19;;;22.96;46.55
6506;BME280;3286;49.858;8.768;2022-08-04T02:40:03;98881.56;;;23.05;46.28
6506;BME280;3286;49.858;8.768;2022-08-04T02:42:31;98885.84;;;22.77;46.78
6506;BME280;3286;49.858;8.768;2022-08-04T02:44:59;98886.25;;;22.56;47.38
6506;BME280;3286;49.858;8.768;2022-08-04T02:47:27;98889.09;;;22.50;47.19
6506;BME280;3286;49.858;8.768;2022-08-04T02:49:56;98886.94;;;22.64;46.57
6506;BME280;3286;49.858;8.768;2022-08-04T02:52:23;98890.63;;;22.46;47.28
6506;BME280;3286;49.858;8.768;2022-08-04T02:54:53;98891.75;;;22.14;48.12
6506;BME280;3286;49.858;8.768;2022-08-04T02:57:22;98896.09;;;22.15;48.10
6506;BME280;3286;49.858;8.768;2022-08-04T03:00:03;98893.16;;;22.40;47.92
6506;BME280;3286;49.858;8.768;2022-08-04T03:02:38;98889.91;;;22.26;48.02
6506;BME280;3286;49.858;8.768;2022-08-04T03:05:18;98885.44;;;22.44;47.33
6506;BME280;3286;49.858;8.768;2022-08-04T03:14:26;98888.06;;;22.80;47.28
6506;BME280;3286;49.858;8.768;2022-08-04T03:17:20;98890.56;;;22.57;47.94
6506;BME280;3286;49.858;8.768;2022-08-04T03:20:17;98897.25;;;22.19;49.39
6506;BME280;3286;49.858;8.768;2022-08-04T03:26:18;98905.56;;;22.53;48.32
6506;BME280;3286;49.858;8.768;2022-08-04T03:32:23;98904.38;;;22.37;48.17
6506;BME280;3286;49.858;8.768;2022-08-04T03:35:02;98905.91;;;21.97;49.06
6506;BME280;3286;49.858;8.768;2022-08-04T03:37:50;98913.59;;;21.70;49.65
6506;BME280;3286;49.858;8.768;2022-08-04T03:40:44;98910.00;;;21.88;49.51
6506;BME280;3286;49.858;8.768;2022-08-04T03:43:46;98911.97;;;21.93;49.11
6506;BME280;3286;49.858;8.768;2022-08-04T03:53:07;98908.72;;;22.14;48.79
6506;BME280;3286;49.858;8.768;2022-08-04T03:55:47;98910.47;;;22.09;48.61
6506;BME280;3286;49.858;8.768;2022-08-04T03:58:51;98906.50;;;22.11;48.69
6506;BME280;3286;49.858;8.768;2022-08-04T04:01:53;98901.13;;;22.47;48.22
6506;BME280;3286;49.858;8.768;2022-08-04T04:04:44;98904.50;;;23.07;46.72
6506;BME280;3286;49.858;8.768;2022-08-04T04:07:56;98908.97;;;22.49;48.01
6506;BME280;3286;49.858;8.768;2022-08-04T04:10:58;98904.56;;;22.83;47.47
6506;BME280;3286;49.858;8.768;2022-08-04T04:16:40;98909.09;;;22.06;48.91
6506;BME280;3286;49.858;8.768;2022-08-04T04:19:22;98917.38;;;22.52;47.95
6506;BME280;3286;49.858;8.768;2022-08-04T04:22:01;98913.88;;;21.92;49.39
6506;BME280;3286;49.858;8.768;2022-08-04T04:24:48;98915.38;;;21.46;50.52
6506;BME280;3286;49.858;8.768;2022-08-04T04:27:45;98916.69;;;21.55;49.90
6506;BME280;3286;49.858;8.768;2022-08-04T04:30:18;98912.53;;;21.40;50.73
6506;BME280;3286;49.858;8.768;2022-08-04T04:33:02;98922.03;;;21.85;49.69
6506;BME280;3286;49.858;8.768;2022-08-04T04:35:37;98918.31;;;21.98;49.34
6506;BME280;3286;49.858;8.768;2022-08-04T04:38:20;98921.41;;;21.71;50.03
6506;BME280;3286;49.858;8.768;2022-08-04T04:41:02;98920.75;;;21.88;49.53
6506;BME280;3286;49.858;8.768;2022-08-04T04:43:46;98924.94;;;21.72;50.53
6506;BME280;3286;49.858;8.768;2022-08-04T04:46:25;98921.25;;;22.33;48.58
6506;BME280;3286;49.858;8.768;2022-08-04T04:49:02;98919.03;;;21.63;50.24
6506;BME280;3286;49.858;8.768;2022-08-04T04:51:37;98922.06;;;21.97;49.35
6506;BME280;3286;49.858;8.768;2022-08-04T04:54:12;98923.13;;;22.08;49.27
6506;BME280;3286;49.858;8.768;2022-08-04T04:56:46;98920.56;;;22.25;48.72
6506;BME280;3286;49.858;8.768;2022-08-04T04:59:19;98926.25;;;22.17;49.53
6506;BME280;3286;49.858;8.768;2022-08-04T05:02:27;98923.06;;;22.80;47.96
6506;BME280;3286;49.858;8.768;2022-08-04T05:05:14;98918.56;;;22.56;48.51
6506;BME280;3286;49.858;8.768;2022-08-04T05:08:19;98926.63;;;22.45;49.12
6506;BME280;3286;49.858;8.768;2022-08-04T05:11:00;98930.00;;;22.04;50.84
6506;BME280;3286;49.858;8.768;2022-08-04T05:13:34;98926.63;;;22.45;49.59
6506;BME280;3286;49.858;8.768;2022-08-04T05:16:08;98925.25;;;22.54;49.59
6506;BME280;3286;49.858;8.768;2022-08-04T05:18:39;98927.13;;;23.06;47.96
6506;BME280;3286;49.858;8.768;2022-08-04T05:21:20;98925.09;;;23.25;47.42
6506;BME280;3286;49.858;8.768;2022-08-04T05:23:55;98923.06;;;23.33;47.30
6506;BME280;3286;49.858;8.768;2022-08-04T05:26:30;98927.97;;;23.36;47.89
6506;BME280;3286;49.858;8.768;2022-08-04T05:29:01;98923.59;;;23.47;47.59
6506;BME280;3286;49.858;8.768;2022-08-04T05:31:33;98926.22;;;23.58;47.64
6506;BME280;3286;49.858;8.768;2022-08-04T05:34:07;98933.50;;;23.75;48.03
6506;BME280;3286;49.858;8.768;2022-08-04T05:36:38;98927.72;;;23.83;47.76
6506;BME280;3286;49.858;8.768;2022-08-04T05:39:09;98937.28;;;23.91;47.66
6506;BME280;3286;49.858;8.768;2022-08-04T05:41:38;98932.16;;;24.07;47.24
6506;BME280;3286;49.858;8.768;2022-08-04T05:44:06;98934.78;;;24.01;47.78
6506;BME280;3286;49.858;8.768;2022-08-04T05:46:36;98941.41;;;24.11;47.44
6506;BME280;3286;49.858;8.768;2022-08-04T05:49:03;98930.44;;;24.00;47.60
6506;BME280;3286;49.858;8.768;2022-08-04T05:51:31;98931.59;;;24.22;47.09
6506;BME280;3286;49.858;8.768;2022-08-04T05:54:00;98929.72;;;24.44;46.71
6506;BME280;3286;49.858;8.768;2022-08-04T05:56:28;98936.06;;;24.16;47.82
6506;BME280;3286;49.858;8.768;2022-08-04T05:58:58;98935.84;;;24.74;46.58
6506;BME280;3286;49.858;8.768;2022-08-04T06:01:25;98936.66;;;24.57;46.79
6506;BME280;3286;49.858;8.768;2022-08-04T06:03:56;98938.13;;;24.65;47.08
6506;BME280;3286;49.858;8.768;2022-08-04T06:06:24;98934.72;;;24.92;46.28
6506;BME280;3286;49.858;8.768;2022-08-04T06:08:53;98933.38;;;24.95;46.40
6506;BME280;3286;49.858;8.768;2022-08-04T06:11:21;98939.22;;;24.86;46.44
6506;BME280;3286;49.858;8.768;2022-08-04T06:13:52;98936.91;;;24.95;46.09
6506;BME280;3286;49.858;8.768;2022-08-04T06:16:22;98934.44;;;24.94;46.31
6506;BME280;3286;49.858;8.768;2022-08-04T06:18:51;98934.78;;;25.47;45.22
6506;BME280;3286;49.858;8.768;2022-08-04T06:21:22;98933.50;;;25.82;44.69
6506;BME280;3286;49.858;8.768;2022-08-04T06:23:50;98927.53;;;25.80;45.12
6506;BME280;3286;49.858;8.768;2022-08-04T06:26:19;98932.78;;;25.92;44.68
6506;BME280;3286;49.858;8.768;2022-08-04T06:28:49;98936.19;;;25.82;44.53
6506;BME280;3286;49.858;8.768;2022-08-04T06:31:18;98937.34;;;25.92;44.45
6506;BME280;3286;49.858;8.768;2022-08-04T06:33:59;98934.34;;;26.21;43.58
6506;BME280;3286;49.858;8.768;2022-08-04T06:36:30;98931.25;;;26.44;41.85
6506;BME280;3286;49.858;8.768;2022-08-04T06:38:58;98933.22;;;26.59;42.13
6506;BME280;3286;49.858;8.768;2022-08-04T06:41:25;98930.38;;;26.87;42.16
6506;BME280;3286;49.858;8.768;2022-08-04T06:43:54;98918.88;;;27.28;40.34
6506;BME280;3286;49.858;8.768;2022-08-04T06:46:25;98926.47;;;27.31;40.79
6506;BME280;3286;49.858;8.768;2022-08-04T06:48:53;98913.53;;;27.59;40.16
6506;BME280;3286;49.858;8.768;2022-08-04T06:51:21;98926.81;;;27.55;41.32
6506;BME280;3286;49.858;8.768;2022-08-04T06:53:50;98920.28;;;27.72;41.06
6506;BME280;3286;49.858;8.768;2022-08-04T06:56:18;98927.91;;;27.96;40.36
6506;BME280;3286;49.858;8.768;2022-08-04T06:58:46;98942.00;;;28.08;40.20
6506;BME280;3286;49.858;8.768;2022-08-04T07:01:14;98937.13;;;28.26;40.33
6506;BME280;3286;49.858;8.768;2022-08-04T07:03:42;98931.16;;;28.34;40.54
6506;BME280;3286;49.858;8.768;2022-08-04T07:06:09;98928.66;;;28.53;40.00
6506;BME280;3286;49.858;8.768;2022-08-04T07:08:39;98931.03;;;28.81;39.43
6506;BME280;3286;49.858;8.768;2022-08-04T07:11:08;98927.91;;;29.08;38.05
6506;BME280;3286;49.858;8.768;2022-08-04T07:13:40;98936.25;;;29.22;37.84
6506;BME280;3286;49.858;8.768;2022-08-04T07:16:12;98931.31;;;29.29;38.67
6506;BME280;3286;49.858;8.768;2022-08-04T07:18:42;98935.31;;;29.47;38.37
6506;BME280;3286;49.858;8.768;2022-08-04T07:21:12;98928.13;;;29.67;38.19
6506;BME280;3286;49.858;8.768;2022-08-04T07:23:44;98929.03;;;29.87;38.38
6506;BME280;3286;49.858;8.768;2022-08-04T07:26:12;98926.25;;;30.27;35.54
6506;BME280;3286;49.858;8.768;2022-08-04T07:28:44;98917.84;;;30.23;35.17
6506;BME280;3286;49.858;8.768;2022-08-04T07:31:15;98918.69;;;30.72;34.90
6506;BME280;3286;49.858;8.768;2022-08-04T07:33:43;98918.94;;;30.95;34.52
6506;BME280;3286;49.858;8.768;2022-08-04T07:36:11;98917.66;;;31.12;33.01
6506;BME280;3286;49.858;8.768;2022-08-04T07:38:38;98922.53;;;31.34;32.60
6506;BME280;3286;49.858;8.768;2022-08-04T07:41:07;98916.91;;;31.44;32.60
6506;BME280;3286;49.858;8.768;2022-08-04T07:43:36;98913.75;;;31.75;32.20
6506;BME280;3286;49.858;8.768;2022-08-04T07:46:04;98915.53;;;32.13;30.40
6506;BME280;3286;49.858;8.768;2022-08-04T07:48:31;98917.66;;;32.16;30.61
6506;BME280;3286;49.858;8.768;2022-08-04T07:51:04;98908.91;;;32.33;30.43
6506;BME280;3286;49.858;8.768;2022-08-04T07:53:33;98905.34;;;32.61;29.78
6506;BME280;3286;49.858;8.768;2022-08-04T07:56:00;98902.84;;;32.64;29.90
6506;BME280;3286;49.858;8.768;2022-08-04T07:58:30;98903.56;;;32.70;29.70
6506;BME280;3286;49.858;8.768;2022-08-04T08:00:58;98899.34;;;33.15;29.15
6506;BME280;3286;49.858;8.768;2022-08-04T08:03:25;98902.81;;;33.29;28.85
6506;BME280;3286;49.858;8.768;2022-08-04T08:05:54;98898.13;;;33.07;29.46
6506;BME280;3286;49.858;8.768;2022-08-04T08:08:20;98901.28;;;33.37;28.93
6506;BME280;3286;49.858;8.768;2022-08-04T08:10:47;98897.63;;;33.64;27.70
6506;BME280;3286;49.858;8.768;2022-08-04T08:13:18;98894.38;;;33.85;27.58
6506;BME280;3286;49.858;8.768;2022-08-04T08:15:49;98891.19;;;33.92;27.29
6506;BME280;3286;49.858;8.768;2022-08-04T08:18:17;98898.38;;;34.02;27.69
6506;BME280;3286;49.858;8.768;2022-08-04T08:20:44;98897.28;;;33.57;28.92
6506;BME280;3286;49.858;8.768;2022-08-04T08:23:11;98897.63;;;33.87;26.03
6506;BME280;3286;49.858;8.768;2022-08-04T08:25:38;98897.09;;;33.85;27.04
6506;BME280;3286;49.858;8.768;2022-08-04T08:28:07;98896.31;;;34.07;27.46
6506;BME280;3286;49.858;8.768;2022-08-04T08:30:35;98892.16;;;34.19;26.39
6506;BME280;3286;49.858;8.768;2022-08-04T08:33:05;98891.38;;;34.27;27.05
6506;BME280;3286;49.858;8.768;2022-08-04T08:35:49;98895.25;;;34.66;25.81
6506;BME280;3286;49.858;8.768;2022-08-04T08:38:23;98881.75;;;35.14;24.96
6506;BME280;3286;49.858;8.768;2022-08-04T08:41:02;98890.81;;;35.23;25.73
6506;BME280;3286;49.858;8.768;2022-08-04T08:43:46;98889.03;;;35.10;25.16
6506;BME280;3286;49.858;8.768;2022-08-04T08:52:28;98892.28;;;35.21;25.01
6506;BME280;3286;49.858;8.768;2022-08-04T08:55:19;98884.31;;;35.46;24.52
6506;BME280;3286;49.858;8.768;2022-08-04T08:58:10;98886.63;;;35.35;24.86
6506;BME280;3286;49.858;8.768;2022-08-04T09:00:50;98881.03;;;35.96;23.91
6506;BME280;3286;49.858;8.768;2022-08-04T09:07:06;98870.75;;;35.49;24.17
6506;BME280;3286;49.858;8.768;2022-08-04T09:09:52;98869.69;;;36.07;23.84
6506;BME280;3286;49.858;8.768;2022-08-04T09:12:32;98866.72;;;36.21;24.14
6506;BME280;3286;49.858;8.768;2022-08-04T09:15:07;98871.03;;;35.83;24.18
6506;BME280;3286;49.858;8.768;2022-08-04T09:17:42;98869.00;;;35.71;23.43
6506;BME280;3286;49.858;8.768;2022-08-04T09:20:16;98864.56;;;35.88;23.55
6506;BME280;3286;49.858;8.768;2022-08-04T09:22:53;98870.41;;;36.34;23.53
6506;BME280;3286;49.858;8.768;2022-08-04T09:25:29;98873.03;;;36.81;23.38
6506;BME280;3286;49.858;8.768;2022-08-04T09:27:59;98870.81;;;37.38;22.03
6506;BME280;3286;49.858;8.768;2022-08-04T09:30:31;98873.56;;;37.72;22.16
6506;BME280;3286;49.858;8.768;2022-08-04T09:33:12;98887.59;;;36.82;21.52
6506;BME280;3286;49.858;8.768;2022-08-04T09:35:46;98871.91;;;37.25;20.54
6506;BME280;3286;49.858;8.768;2022-08-04T09:38:18;98879.19;;;37.63;21.27
6506;BME280;3286;49.858;8.768;2022-08-04T09:40:52;98872.66;;;37.47;20.60
6506;BME280;3286;49.858;8.768;2022-08-04T09:43:34;98873.25;;;37.86;20.93
6506;BME280;3286;49.858;8.768;2022-08-04T09:46:05;98864.00;;;38.03;21.24
6506;BME280;3286;49.858;8.768;2022-08-04T09:48:42;98868.38;;;38.41;20.00
6506;BME280;3286;49.858;8.768;2022-08-04T09:51:17;98870.00;;;38.43;19.82
6506;BME280;3286;49.858;8.768;2022-08-04T09:53:54;98875.72;;;38.75;19.55
6506;BME280;3286;49.858;8.768;2022-08-04T09:56:31;98866.16;;;38.72;19.69
6506;BME280;3286;49.858;8.768;2022-08-04T09:59:14;98858.63;;;38.57;18.83
6506;BME280;3286;49.858;8.768;2022-08-04T10:01:47;98859.06;;;38.59;19.54
6506;BME280;3286;49.858;8.768;2022-08-04T10:04:16;98860.38;;;39.02;19.80
6506;BME280;3286;49.858;8.768;2022-08-04T10:07:12;98859.00;;;38.96;20.29
6506;BME280;3286;49.858;8.768;2022-08-04T10:09:49;98854.13;;;39.46;19.35
6506;BME280;3286;49.858;8.768;2022-08-04T10:12:32;98851.31;;;39.02;19.12
6506;BME280;3286;49.858;8.768;2022-08-04T10:15:09;98852.97;;;39.19;18.82
6506;BME280;3286;49.858;8.768;2022-08-04T10:17:58;98850.28;;;38.81;20.12
6506;BME280;3286;49.858;8.768;2022-08-04T10:20:50;98853.09;;;38.32;19.85
6506;BME280;3286;49.858;8.768;2022-08-04T10:23:35;98846.34;;;39.23;18.90
6506;BME280;3286;49.858;8.768;2022-08-04T10:26:19;98854.38;;;37.08;20.75
6506;BME280;3286;49.858;8.768;2022-08-04T10:28:59;98841.38;;;38.60;18.62
6506;BME280;3286;49.858;8.768;2022-08-04T10:31:33;98845.47;;;38.78;18.56
6506;BME280;3286;49.858;8.768;2022-08-04T10:34:05;98844.13;;;38.10;19.83
6506;BME280;3286;49.858;8.768;2022-08-04T10:36:50;98847.75;;;37.77;20.60
6506;BME280;3286;49.858;8.768;2022-08-04T10:39:24;98836.41;;;38.40;20.01
6506;BME280;3286;49.858;8.768;2022-08-04T10:42:02;98837.97;;;37.67;19.84
6506;BME280;3286;49.858;8.768;2022-08-04T10:44:46;98836.22;;;38.46;19.02
6506;BME280;3286;49.858;8.768;2022-08-04T10:47:21;98832.75;;;38.36;19.63
6506;BME280;3286;49.858;8.768;2022-08-04T10:49:54;98829.28;;;38.39;18.69
6506;BME280;3286;49.858;8.768;2022-08-04T10:52:32;98840.03;;;35.74;21.50
6506;BME280;3286;49.858;8.768;2022-08-04T10:55:07;98841.66;;;36.52;21.91
6506;BME280;3286;49.858;8.768;2022-08-04T10:57:39;98834.69;;;37.40;20.00
6506;BME280;3286;49.858;8.768;2022-08-04T11:00:12;98831.94;;;38.23;19.09
6506;BME280;3286;49.858;8.768;2022-08-04T11:02:48;98828.38;;;38.35;19.39
6506;BME280;3286;49.858;8.768;2022-08-04T11:05:22;98828.84;;;38.62;19.40
6506;BME280;3286;49.858;8.768;2022-08-04T11:07:56;98829.19;;;38.23;19.73
6506;BME280;3286;49.858;8.768;2022-08-04T11:10:28;98833.00;;;38.56;19.90
6506;BME280;3286;49.858;8.768;2022-08-04T11:13:02;98827.53;;;39.41;18.57
6506;BME280;3286;49.858;8.768;2022-08-04T11:15:36;98823.91;;;40.18;17.73
6506;BME280;3286;49.858;8.768;2022-08-04T11:18:09;98816.47;;;40.38;17.80
6506;BME280;3286;49.858;8.768;2022-08-04T11:20:43;98820.78;;;40.35;17.07
6506;BME280;3286;49.858;8.768;2022-08-04T11:23:25;98814.28;;;39.47;17.97
6506;BME280;3286;49.858;8.768;2022-08-04T11:25:59;98816.63;;;39.33;19.08
6506;BME280;3286;49.858;8.768;2022-08-04T11:28:45;98828.66;;;38.83;18.49
6506;BME280;3286;49.858;8.768;2022-08-04T11:31:19;98827.34;;;39.06;18.67
6506;BME280;3286;49.858;8.768;2022-08-04T11:33:52;98818.63;;;38.50;18.62
6506;BME280;3286;49.858;8.768;2022-08-04T11:36:29;98820.16;;;39.46;17.76
6506;BME280;3286;49.858;8.768;2022-08-04T11:39:05;98826.44;;;39.02;18.16
6506;BME280;3286;49.858;8.768;2022-08-04T11:41:44;98824.16;;;38.50;17.66
6506;BME280;3286;49.858;8.768;2022-08-04T11:44:21;98831.13;;;39.74;16.36
6506;BME280;3286;49.858;8.768;2022-08-04T11:47:01;98824.56;;;39.34;17.43
6506;BME280;3286;49.858;8.768;2022-08-04T11:49:37;98817.59;;;40.17;16.46
6506;BME280;3286;49.858;8.768;2022-08-04T11:52:14;98822.22;;;40.29;17.86
6506;BME280;3286;49.858;8.768;2022-08-04T11:54:44;98816.56;;;40.97;15.45
6506;BME280;3286;49.858;8.768;2022-08-04T11:57:11;98821.16;;;41.09;14.98
6506;BME280;3286;49.858;8.768;2022-08-04T11:59:41;98814.81;;;40.17;15.70
6506;BME280;3286;49.858;8.768;2022-08-04T12:02:36;98806.25;;;40.58;15.60
6506;BME280;3286;49.858;8.768;2022-08-04T12:05:18;98819.53;;;38.42;17.29
6506;BME280;3286;49.858;8.768;2022-08-04T12:07:54;98822.03;;;39.74;16.94
6506;BME280;3286;49.858;8.768;2022-08-04T12:10:37;98823.28;;;39.44;17.53
6506;BME280;3286;49.858;8.768;2022-08-04T12:13:14;98822.88;;;38.48;17.05
6506;BME280;3286;49.858;8.768;2022-08-04T12:15:55;98813.97;;;39.81;16.08
6506;BME280;3286;49.858;8.768;2022-08-04T12:18:31;98812.66;;;39.46;15.92
6506;BME280;3286;49.858;8.768;2022-08-04T12:21:06;98797.16;;;39.74;16.19
6506;BME280;3286;49.858;8.768;2022-08-04T12:23:39;98811.34;;;39.40;17.24
6506;BME280;3286;49.858;8.768;2022-08-04T12:26:09;98811.72;;;39.70;16.96
6506;BME280;3286;49.858;8.768;2022-08-04T12:28:40;98806.72;;;39.92;16.25
6506;BME280;3286;49.858;8.768;2022-08-04T12:31:15;98799.94;;;40.06;15.14
6506;BME280;3286;49.858;8.768;2022-08-04T12:33:53;98800.75;;;40.78;15.79
6506;BME280;3286;49.858;8.768;2022-08-04T12:36:36;98790.66;;;41.28;15.44
6506;BME280;3286;49.858;8.768;2022-08-04T12:39:10;98793.84;;;41.74;14.49
6506;BME280;3286;49.858;8.768;2022-08-04T12:41:51;98785.81;;;41.22;13.80
6506;BME280;3286;49.858;8.768;2022-08-04T12:44:24;98789.09;;;40.68;13.57
6506;BME280;3286;49.858;8.768;2022-08-04T12:46:57;98791.53;;;40.34;14.29
6506;BME280;3286;49.858;8.768;2022-08-04T12:49:36;98792.81;;;40.76;14.10
6506;BME280;3286;49.858;8.768;2022-08-04T12:52:07;98786.13;;;39.90;14.44
6506;BME280;3286;49.858;8.768;2022-08-04T12:54:37;98795.13;;;39.70;14.99
6506;BME280;3286;49.858;8.768;2022-08-04T12:57:09;98785.50;;;40.68;14.15
6506;BME280;3286;49.858;8.768;2022-08-04T12:59:40;98784.66;;;41.23;13.69
6506;BME280;3286;49.858;8.768;2022-08-04T13:02:13;98781.72;;;40.76;14.19
6506;BME280;3286;49.858;8.768;2022-08-04T13:04:43;98779.88;;;40.09;14.67
6506;BME280;3286;49.858;8.768;2022-08-04T13:07:14;98785.28;;;40.21;14.49
6506;BME280;3286;49.858;8.768;2022-08-04T13:09:41;98780.56;;;40.77;13.63
6506;BME280;3286;49.858;8.768;2022-08-04T13:12:12;98762.06;;;41.21;13.29
6506;BME280;3286;49.858;8.768;2022-08-04T13:14:42;98766.47;;;41.49;13.80
6506;BME280;3286;49.858;8.768;2022-08-04T13:17:09;98761.06;;;41.33;14.24
6506;BME280;3286;49.858;8.768;2022-08-04T13:19:45;98768.09;;;40.67;13.89
6506;BME280;3286;49.858;8.768;2022-08-04T13:22:12;98773.41;;;40.21;14.47
6506;BME280;3286;49.858;8.768;2022-08-04T13:24:41;98769.50;;;40.97;13.94
6506;BME280;3286;49.858;8.768;2022-08-04T13:27:11;98756.28;;;41.10;13.43
6506;BME280;3286;49.858;8.768;2022-08-04T13:29:40;98754.81;;;40.37;13.90
6506;BME280;3286;49.858;8.768;2022-08-04T13:32:09;98738.09;;;40.89;13.50
6506;BME280;3286;49.858;8.768;2022-08-04T13:34:40;98743.91;;;40.64;14.12
6506;BME280;3286;49.858;8.768;2022-08-04T13:37:16;98745.00;;;41.42;14.12
6506;BME280;3286;49.858;8.768;2022-08-04T13:39:48;98740.75;;;41.25;14.14
6506;BME280;3286;49.858;8.768;2022-08-04T13:42:19;98739.69;;;41.33;13.02
6506;BME280;3286;49.858;8.768;2022-08-04T13:44:52;98739.25;;;41.54;13.52
6506;BME280;3286;49.858;8.768;2022-08-04T13:47:26;98733.94;;;42.50;12.39
6506;BME280;3286;49.858;8.768;2022-08-04T13:50:15;98736.66;;;39.84;14.35
6506;BME280;3286;49.858;8.768;2022-08-04T13:52:45;98728.97;;;40.49;13.77
6506;BME280;3286;49.858;8.768;2022-08-04T13:55:20;98724.00;;;41.64;13.91
6506;BME280;3286;49.858;8.768;2022-08-04T13:57:50;98726.63;;;42.07;13.07
6506;BME280;3286;49.858;8.768;2022-08-04T14:00:21;98721.75;;;41.74;13.32
6506;BME280;3286;49.858;8.768;2022-08-04T14:02:58;98715.94;;;42.40;12.17
6506;BME280;3286;49.858;8.768;2022-08-04T14:05:27;98714.31;;;41.08;13.37
6506;BME280;3286;49.858;8.768;2022-08-04T14:08:07;98713.16;;;42.09;12.94
6506;BME280;3286;49.858;8.768;2022-08-04T14:10:35;98707.84;;;41.70;12.72
6506;BME280;3286;49.858;8.768;2022-08-04T14:13:03;98706.41;;;41.80;12.23
6506;BME280;3286;49.858;8.768;2022-08-04T14:15:34;98701.16;;;42.02;12.73
6506;BME280;3286;49.858;8.768;2022-08-04T14:18:19;98700.38;;;42.32;12.47
6506;BME280;3286;49.858;8.768;2022-08-04T14:21:06;98696.31;;;42.52;12.07
6506;BME280;3286;49.858;8.768;2022-08-04T14:23:44;98698.84;;;41.07;13.75
6506;BME280;3286;49.858;8.768;2022-08-04T14:26:16;98696.25;;;41.41;13.43
6506;BME280;3286;49.858;8.768;2022-08-04T14:28:45;98690.66;;;42.14;14.06
6506;BME280;3286;49.858;8.768;2022-08-04T14:31:15;98687.91;;;41.61;14.40
6506;BME280;3286;49.858;8.768;2022-08-04T14:33:43;98691.47;;;41.15;13.54
6506;BME280;3286;49.858;8.768;2022-08-04T14:36:10;98694.03;;;40.80;14.46
6506;BME280;3286;49.858;8.768;2022-08-04T14:38:44;98693.28;;;40.83;13.81